Time;durP1;ratioP1;P1;durP2;ratioP2;P2;SDS_P1;SDS_P2;PMS_P1;PMS_P2;Temp;Humidity;BMP_temperature;BMP_pressure;BME280_temperature;BME280_humidity;BME280_pressure;Samples;Min_cycle;Max_cycle;Signal;HPM_P1;HPM_P2
2024/01/14 00:00:49;;;;;;;19.53;6.27;;;-2.00;99.90;;;;;;4427629;28;658245;-73
2024/01/14 00:03:37;;;;;;;23.40;10.47;;;-2.00;99.90;;;;;;4445131;28;657816;-73
2024/01/14 00:06:24;;;;;;;27.60;15.10;;;-2.00;99.90;;;;;;4418267;28;659746;-72
2024/01/14 00:09:11;;;;;;;15.10;8.57;;;-2.00;99.90;;;;;;4451445;28;658315;-72
2024/01/14 00:12:00;;;;;;;25.40;11.33;;;-2.00;99.90;;;;;;4423160;28;657669;-73
2024/01/14 00:14:47;;;;;;;15.50;7.50;;;-2.00;99.90;;;;;;4434507;28;659497;-72
2024/01/14 00:17:35;;;;;;;20.93;9.67;;;-2.00;99.90;;;;;;4443351;28;658275;-72
2024/01/14 00:20:22;;;;;;;20.07;9.60;;;-2.00;99.90;;;;;;4432663;28;657533;-73
2024/01/14 00:23:09;;;;;;;8.10;4.00;;;-2.00;99.90;;;;;;4421665;28;658299;-73
2024/01/14 00:25:57;;;;;;;14.33;7.57;;;-2.00;99.90;;;;;;4448749;28;657247;-73
2024/01/14 00:28:45;;;;;;;8.30;4.17;;;-2.00;99.90;;;;;;4430402;28;658594;-73
2024/01/14 00:31:33;;;;;;;13.70;4.60;;;-2.00;99.90;;;;;;4431936;28;656873;-72
2024/01/14 00:34:20;;;;;;;7.03;3.17;;;-2.00;99.90;;;;;;4438936;28;658119;-74
2024/01/14 00:37:07;;;;;;;11.03;5.03;;;-2.00;99.90;;;;;;4437280;28;656423;-72
2024/01/14 00:39:55;;;;;;;16.03;7.87;;;-1.90;99.90;;;;;;4449967;28;657616;-72
2024/01/14 00:42:42;;;;;;;13.43;4.87;;;-1.90;99.90;;;;;;4437607;28;657330;-73
2024/01/14 00:45:31;;;;;;;21.67;10.30;;;-1.90;99.90;;;;;;4453506;28;657916;-73
2024/01/14 00:48:18;;;;;;;13.00;6.87;;;-1.90;99.90;;;;;;4426435;28;658853;-73
2024/01/14 00:51:05;;;;;;;17.93;8.77;;;-1.80;99.90;;;;;;4443979;28;657531;-73
2024/01/14 00:53:53;;;;;;;20.10;8.63;;;-1.80;99.90;;;;;;4420637;28;657999;-72
2024/01/14 00:56:41;;;;;;;15.33;6.67;;;-1.80;99.90;;;;;;4448092;28;659335;-73
2024/01/14 00:59:28;;;;;;;13.90;6.67;;;-1.80;99.90;;;;;;4430472;28;657402;-73
2024/01/14 01:02:18;;;;;;;14.40;6.78;;;-1.70;99.90;;;;;;4448196;28;658479;-73
2024/01/14 01:05:05;;;;;;;19.67;10.83;;;-1.70;99.90;;;;;;4417985;28;657743;-72
2024/01/14 01:07:53;;;;;;;16.83;8.43;;;-1.60;99.90;;;;;;4429349;28;658893;-72
2024/01/14 01:10:40;;;;;;;13.23;6.50;;;-1.60;99.90;;;;;;4448299;28;658522;-73
2024/01/14 01:13:27;;;;;;;15.53;6.70;;;-1.60;99.90;;;;;;4443557;28;657405;-73
2024/01/14 01:16:15;;;;;;;13.40;7.37;;;-1.60;99.90;;;;;;4438231;28;658042;-73
2024/01/14 01:19:03;;;;;;;21.73;9.93;;;-1.50;99.90;;;;;;4444978;28;657587;-73
2024/01/14 01:21:51;;;;;;;9.40;4.70;;;-1.60;99.90;;;;;;4412430;28;657842;-73
2024/01/14 01:24:38;;;;;;;14.60;5.93;;;-1.50;99.90;;;;;;4418090;28;655969;-73
2024/01/14 01:27:26;;;;;;;20.08;8.18;;;-1.60;99.90;;;;;;4444314;28;658138;-73
2024/01/14 01:30:14;;;;;;;20.20;10.97;;;-1.60;99.90;;;;;;4417344;28;657948;-74
2024/01/14 01:33:01;;;;;;;12.37;8.20;;;-1.60;99.90;;;;;;4439480;28;659042;-73
2024/01/14 01:35:50;;;;;;;10.63;5.47;;;-1.60;99.90;;;;;;4419304;28;657578;-73
2024/01/14 01:38:38;;;;;;;21.47;11.03;;;-1.60;99.90;;;;;;4436928;28;658552;-73
2024/01/14 01:41:26;;;;;;;11.00;5.90;;;-1.60;99.90;;;;;;4447045;28;660331;-73
2024/01/14 01:44:13;;;;;;;16.07;8.00;;;-1.60;99.90;;;;;;4428733;28;658050;-72
2024/01/14 01:47:00;;;;;;;13.67;5.87;;;-1.50;99.90;;;;;;4447596;28;659135;-73
2024/01/14 01:49:47;;;;;;;17.17;8.27;;;-1.50;99.90;;;;;;4434077;28;657671;-72
2024/01/14 01:52:36;;;;;;;6.93;3.07;;;-1.50;99.90;;;;;;4449026;28;658738;-72
2024/01/14 01:55:23;;;;;;;19.03;10.17;;;-1.60;99.90;;;;;;4422065;28;656545;-73
2024/01/14 01:58:11;;;;;;;19.33;9.80;;;-1.50;99.90;;;;;;4444211;28;659064;-73
2024/01/14 02:00:58;;;;;;;14.33;5.90;;;-1.50;99.90;;;;;;4420616;28;657968;-72
2024/01/14 02:03:45;;;;;;;12.77;6.13;;;-1.50;99.90;;;;;;4443620;28;658392;-72
2024/01/14 02:06:33;;;;;;;17.55;8.65;;;-1.60;99.90;;;;;;4416837;28;657833;-73
2024/01/14 02:09:21;;;;;;;15.63;5.57;;;-1.60;99.90;;;;;;4447614;28;657725;-72
2024/01/14 02:12:09;;;;;;;11.10;5.20;;;-1.60;99.90;;;;;;4429159;28;657558;-73
2024/01/14 02:14:56;;;;;;;21.23;10.87;;;-1.50;99.90;;;;;;4446166;28;658089;-73
2024/01/14 02:17:43;;;;;;;12.73;6.83;;;-1.50;99.90;;;;;;4421707;28;658452;-73
2024/01/14 02:20:30;;;;;;;9.07;5.63;;;-1.50;99.90;;;;;;4441921;28;657787;-73
2024/01/14 02:23:19;;;;;;;20.10;9.73;;;-1.50;99.90;;;;;;4422384;28;656177;-72
2024/01/14 02:26:09;;;;;;;8.47;4.70;;;-1.60;99.90;;;;;;4422912;28;658894;-73
2024/01/14 02:28:56;;;;;;;19.33;10.20;;;-1.50;99.90;;;;;;4448377;28;656445;-73
2024/01/14 02:31:44;;;;;;;12.97;5.43;;;-1.50;99.90;;;;;;4412918;28;658724;-73
2024/01/14 02:34:32;;;;;;;14.73;5.80;;;-1.50;99.90;;;;;;4444133;28;657454;-73
2024/01/14 02:37:19;;;;;;;18.63;8.63;;;-1.50;99.90;;;;;;4420283;28;658752;-72
2024/01/14 02:40:07;;;;;;;11.10;5.30;;;-1.50;99.90;;;;;;4443953;28;658430;-73
2024/01/14 02:42:56;;;;;;;15.87;6.50;;;-1.50;99.90;;;;;;4419459;28;658925;-73
2024/01/14 02:45:43;;;;;;;16.20;7.77;;;-1.50;99.90;;;;;;4427478;28;657343;-73
2024/01/14 02:48:30;;;;;;;17.90;6.50;;;-1.50;99.90;;;;;;4447061;28;657804;-73
2024/01/14 02:51:18;;;;;;;12.07;6.10;;;-1.50;99.90;;;;;;4426562;28;658825;-72
2024/01/14 02:54:05;;;;;;;16.37;8.33;;;-1.40;99.90;;;;;;4436215;28;659443;-73
2024/01/14 02:56:52;;;;;;;15.50;7.03;;;-1.50;99.90;;;;;;4432818;28;658267;-72
2024/01/14 02:59:41;;;;;;;16.93;7.90;;;-1.40;99.90;;;;;;4440875;28;658078;-73
2024/01/14 03:02:28;;;;;;;16.07;8.80;;;-1.40;99.90;;;;;;4421067;28;657583;-72
2024/01/14 03:05:15;;;;;;;14.63;6.07;;;-1.40;99.90;;;;;;4438888;28;657601;-73
2024/01/14 03:08:03;;;;;;;17.33;6.40;;;-1.40;99.90;;;;;;4426273;28;657888;-72
2024/01/14 03:10:50;;;;;;;16.23;9.87;;;-1.40;99.90;;;;;;4438388;28;657945;-73
2024/01/14 03:13:37;;;;;;;20.10;7.30;;;-1.50;99.90;;;;;;4424265;28;657303;-72
2024/01/14 03:16:26;;;;;;;15.43;6.30;;;-1.40;99.90;;;;;;4444255;28;657741;-73
2024/01/14 03:19:13;;;;;;;17.73;7.32;;;-1.40;99.90;;;;;;4417333;28;657757;-72
2024/01/14 03:22:01;;;;;;;4.87;2.73;;;-1.40;99.90;;;;;;4448136;28;657060;-73
2024/01/14 03:24:48;;;;;;;13.07;6.93;;;-1.40;99.90;;;;;;4426956;28;657021;-72
2024/01/14 03:27:35;;;;;;;15.77;7.83;;;-1.40;99.90;;;;;;4446436;28;658880;-73
2024/01/14 03:30:22;;;;;;;13.55;5.97;;;-1.40;99.90;;;;;;4426313;28;657530;-72
2024/01/14 03:33:11;;;;;;;17.43;7.60;;;-1.40;99.90;;;;;;4438654;28;657951;-73
2024/01/14 03:36:01;;;;;;;18.43;10.10;;;-1.40;99.90;;;;;;4424610;28;658094;-73
2024/01/14 03:38:48;;;;;;;15.55;8.63;;;-1.50;99.90;;;;;;4417598;28;659192;-72
2024/01/14 03:41:35;;;;;;;17.60;9.87;;;-1.40;99.90;;;;;;4445485;28;657709;-73
2024/01/14 03:44:23;;;;;;;22.07;11.60;;;-1.50;99.90;;;;;;4423777;28;657257;-73
2024/01/14 03:47:10;;;;;;;14.20;5.77;;;-1.40;99.90;;;;;;4436590;28;659180;-73
2024/01/14 03:49:59;;;;;;;17.70;9.93;;;-1.50;99.90;;;;;;4428317;28;657563;-72
2024/01/14 03:52:46;;;;;;;15.20;6.53;;;-1.50;99.90;;;;;;4441308;28;657516;-73
2024/01/14 03:55:33;;;;;;;15.20;7.30;;;-1.50;99.90;;;;;;4423233;28;657461;-72
2024/01/14 03:58:20;;;;;;;16.83;7.40;;;-1.50;99.90;;;;;;4443921;28;657303;-73
2024/01/14 04:01:11;;;;;;;10.90;4.60;;;-1.50;99.90;;;;;;4417843;28;657645;-72
2024/01/14 04:03:58;;;;;;;14.05;5.97;;;-1.50;99.90;;;;;;4419952;28;657875;-73
2024/01/14 04:06:47;;;;;;;19.05;9.15;;;-1.50;99.90;;;;;;4442225;28;658752;-73
2024/01/14 04:09:34;;;;;;;18.67;6.97;;;-1.50;99.90;;;;;;4422639;28;658002;-72
2024/01/14 04:12:21;;;;;;;8.43;3.47;;;-1.40;99.90;;;;;;4446770;28;657332;-73
2024/01/14 04:15:09;;;;;;;16.92;8.70;;;-1.40;99.90;;;;;;4424571;28;657186;-73
2024/01/14 04:17:56;;;;;;;12.90;6.10;;;-1.50;99.90;;;;;;4446348;28;657752;-73
2024/01/14 04:20:44;;;;;;;18.73;8.93;;;-1.40;99.90;;;;;;4422895;28;657784;-73
2024/01/14 04:23:32;;;;;;;14.27;6.67;;;-1.50;99.90;;;;;;4445509;28;657335;-73
2024/01/14 04:26:20;;;;;;;19.17;11.00;;;-1.40;99.90;;;;;;4419194;28;658168;-73
2024/01/14 04:29:08;;;;;;;19.10;11.90;;;-1.50;99.90;;;;;;4424589;28;658405;-72
2024/01/14 04:31:55;;;;;;;9.43;4.03;;;-1.50;99.90;;;;;;4433751;28;658752;-73
2024/01/14 04:34:42;;;;;;;24.43;9.40;;;-1.50;99.90;;;;;;4436737;28;656682;-72
2024/01/14 04:37:30;;;;;;;20.93;8.90;;;-1.60;99.90;;;;;;4448042;28;657822;-72
2024/01/14 04:40:18;;;;;;;20.03;8.77;;;-1.60;99.90;;;;;;4437053;28;658568;-73
2024/01/14 04:43:06;;;;;;;23.63;11.97;;;-1.70;99.90;;;;;;4417160;28;658374;-73
2024/01/14 04:45:53;;;;;;;20.77;10.47;;;-1.70;99.90;;;;;;4425003;28;658663;-73
2024/01/14 04:48:40;;;;;;;23.97;11.50;;;-1.70;99.90;;;;;;4449164;28;659193;-73
2024/01/14 04:51:28;;;;;;;12.27;5.40;;;-1.70;99.90;;;;;;4421232;28;658593;-72
2024/01/14 04:54:15;;;;;;;21.27;8.97;;;-1.70;99.90;;;;;;4444481;28;659121;-73
2024/01/14 04:57:04;;;;;;;11.27;5.50;;;-1.60;99.90;;;;;;4428145;28;658901;-72
2024/01/14 04:59:52;;;;;;;15.63;6.57;;;-1.60;99.90;;;;;;4443650;28;658537;-73
2024/01/14 05:02:39;;;;;;;21.03;5.90;;;-1.60;99.90;;;;;;4423279;28;658473;-73
2024/01/14 05:05:26;;;;;;;20.27;7.63;;;-1.60;99.90;;;;;;4444776;28;658393;-73
2024/01/14 05:08:13;;;;;;;21.50;9.70;;;-1.60;99.90;;;;;;4418988;28;657701;-74
2024/01/14 05:11:00;;;;;;;20.53;10.13;;;-1.60;99.90;;;;;;4447434;28;657275;-74
2024/01/14 05:13:49;;;;;;;17.60;8.57;;;-1.60;99.90;;;;;;4417624;28;658824;-73
2024/01/14 05:16:36;;;;;;;19.37;8.77;;;-1.60;99.90;;;;;;4448352;28;656974;-73
2024/01/14 05:19:23;;;;;;;10.60;5.17;;;-1.60;99.90;;;;;;4428254;28;657935;-73
2024/01/14 05:22:10;;;;;;;13.97;7.27;;;-1.60;99.90;;;;;;4446065;28;657721;-72
2024/01/14 05:24:57;;;;;;;16.50;7.77;;;-1.60;99.90;;;;;;4424531;28;657841;-73
2024/01/14 05:27:45;;;;;;;15.67;7.20;;;-1.60;99.90;;;;;;4446488;28;657939;-73
2024/01/14 05:30:34;;;;;;;24.20;12.03;;;-1.70;99.90;;;;;;4431111;28;657763;-72
2024/01/14 05:33:21;;;;;;;24.73;11.17;;;-1.70;99.90;;;;;;4441256;28;658865;-72
2024/01/14 05:36:08;;;;;;;15.43;6.73;;;-1.70;99.90;;;;;;4424414;28;659560;-74
2024/01/14 05:38:55;;;;;;;25.40;10.70;;;-1.70;99.90;;;;;;4438754;28;657748;-73
2024/01/14 05:41:43;;;;;;;7.00;3.60;;;-1.70;99.90;;;;;;4422220;28;659072;-73
2024/01/14 05:44:31;;;;;;;23.87;10.43;;;-1.70;99.90;;;;;;4443669;28;657227;-72
2024/01/14 05:47:20;;;;;;;29.40;13.33;;;-1.70;99.90;;;;;;4416026;28;658565;-72
2024/01/14 05:50:08;;;;;;;26.87;11.80;;;-1.70;99.90;;;;;;4440990;28;659371;-73
2024/01/14 05:52:55;;;;;;;24.87;13.20;;;-1.70;99.90;;;;;;4426113;28;659052;-73
2024/01/14 05:55:42;;;;;;;16.90;7.15;;;-1.60;99.90;;;;;;4428964;28;658616;-73
2024/01/14 05:58:30;;;;;;;17.93;7.33;;;-1.60;99.90;;;;;;4448737;28;658170;-73
2024/01/14 06:01:18;;;;;;;29.00;13.27;;;-1.60;99.90;;;;;;4428074;28;657891;-72
2024/01/14 06:04:07;;;;;;;13.40;5.80;;;-1.60;99.90;;;;;;4445631;28;658634;-74
2024/01/14 06:06:54;;;;;;;19.63;9.10;;;-1.60;99.90;;;;;;4429958;28;657839;-74
2024/01/14 06:09:42;;;;;;;18.93;6.57;;;-1.60;99.90;;;;;;4448217;28;657797;-73
2024/01/14 06:12:29;;;;;;;23.00;11.80;;;-1.60;99.90;;;;;;4429109;28;657779;-73
2024/01/14 06:15:16;;;;;;;23.83;11.30;;;-1.60;99.90;;;;;;4446556;28;658593;-73
2024/01/14 06:18:03;;;;;;;12.43;5.87;;;-1.60;99.90;;;;;;4427632;28;658598;-73
2024/01/14 06:20:52;;;;;;;24.80;12.07;;;-1.50;99.90;;;;;;4430361;28;658272;-73
2024/01/14 06:23:40;;;;;;;17.70;7.57;;;-1.50;99.90;;;;;;4419388;28;659665;-73
2024/01/14 06:26:27;;;;;;;8.67;4.03;;;-1.50;99.90;;;;;;4443085;28;657494;-72
2024/01/14 06:29:14;;;;;;;24.03;11.00;;;-1.50;99.90;;;;;;4430652;28;656901;-72
2024/01/14 06:32:01;;;;;;;25.73;10.87;;;-1.50;99.90;;;;;;4442973;28;659039;-72
2024/01/14 06:34:48;;;;;;;12.03;5.70;;;-1.50;99.90;;;;;;4427984;28;658603;-72
2024/01/14 06:37:37;;;;;;;16.10;5.63;;;-1.50;99.90;;;;;;4442239;28;658060;-73
2024/01/14 06:40:24;;;;;;;20.80;11.17;;;-1.50;99.90;;;;;;4411135;28;658218;-72
2024/01/14 06:43:11;;;;;;;21.97;11.53;;;-1.50;99.90;;;;;;4446777;28;659254;-73
2024/01/14 06:45:59;;;;;;;19.50;9.10;;;-1.40;99.90;;;;;;4423573;28;658526;-72
2024/01/14 06:48:46;;;;;;;22.20;11.40;;;-1.40;99.90;;;;;;4447625;28;657398;-73
2024/01/14 06:51:33;;;;;;;21.17;11.70;;;-1.40;99.90;;;;;;4421819;28;659166;-72
2024/01/14 06:54:21;;;;;;;28.33;12.83;;;-1.30;99.90;;;;;;4446287;28;659529;-72
2024/01/14 06:57:09;;;;;;;19.07;8.13;;;-1.40;99.90;;;;;;4406120;28;658647;-72
2024/01/14 06:59:56;;;;;;;23.60;10.67;;;-1.30;99.90;;;;;;4429749;28;658198;-72
2024/01/14 07:02:43;;;;;;;29.37;12.70;;;-1.30;99.90;;;;;;4415992;28;658913;-73
2024/01/14 07:05:30;;;;;;;20.67;9.00;;;-1.40;99.90;;;;;;4449566;28;659596;-72
2024/01/14 07:08:18;;;;;;;22.63;10.65;;;-1.30;99.90;;;;;;4416455;28;657830;-72
2024/01/14 07:11:06;;;;;;;18.33;7.97;;;-1.30;99.90;;;;;;4443558;28;659657;-73
2024/01/14 07:13:53;;;;;;;29.57;15.77;;;-1.30;99.90;;;;;;4423930;28;657933;-72
2024/01/14 07:16:40;;;;;;;20.95;11.18;;;-1.30;99.90;;;;;;4433885;28;660050;-73
2024/01/14 07:19:28;;;;;;;18.40;7.00;;;-1.30;99.90;;;;;;4426981;28;658520;-72
2024/01/14 07:22:15;;;;;;;27.10;13.43;;;-1.30;99.90;;;;;;4447506;28;658484;-73
2024/01/14 07:25:02;;;;;;;26.07;13.97;;;-1.30;99.90;;;;;;4442744;28;659364;-72
2024/01/14 07:27:51;;;;;;;26.03;11.00;;;-1.40;99.90;;;;;;4434203;28;658949;-72
2024/01/14 07:30:38;;;;;;;22.90;11.30;;;-1.40;99.90;;;;;;4412926;28;658877;-72
2024/01/14 07:33:25;;;;;;;28.53;11.90;;;-1.40;99.90;;;;;;4444813;28;659262;-72
2024/01/14 07:36:13;;;;;;;16.17;7.10;;;-1.50;99.90;;;;;;4426233;28;658802;-72
2024/01/14 07:39:00;;;;;;;27.67;12.30;;;-1.50;99.90;;;;;;4447509;28;658357;-73
2024/01/14 07:41:48;;;;;;;19.30;8.13;;;-1.50;99.90;;;;;;4426405;28;658907;-73
2024/01/14 07:44:37;;;;;;;29.20;12.68;;;-1.50;99.90;;;;;;4446229;28;658820;-73
2024/01/14 07:47:24;;;;;;;29.57;12.77;;;-1.50;99.90;;;;;;4421970;28;659731;-72
2024/01/14 07:50:11;;;;;;;27.10;10.67;;;-1.50;99.90;;;;;;4443024;28;658546;-72
2024/01/14 07:52:58;;;;;;;15.87;7.20;;;-1.50;99.90;;;;;;4427045;28;658632;-72
2024/01/14 07:55:46;;;;;;;30.10;11.93;;;-1.50;99.90;;;;;;4431321;28;659191;-72
2024/01/14 07:58:33;;;;;;;33.70;15.00;;;-1.40;99.90;;;;;;4413425;28;659088;-73
2024/01/14 08:01:21;;;;;;;30.37;14.17;;;-1.40;99.90;;;;;;4439951;28;659152;-72
2024/01/14 08:04:08;;;;;;;28.60;13.90;;;-1.40;99.90;;;;;;4424675;28;658605;-73
2024/01/14 08:06:56;;;;;;;33.67;18.57;;;-1.40;99.90;;;;;;4445296;28;659088;-72
2024/01/14 08:09:43;;;;;;;34.90;16.50;;;-1.30;99.90;;;;;;4426221;28;658864;-73
2024/01/14 08:12:30;;;;;;;20.63;9.50;;;-1.30;99.90;;;;;;4449451;28;659154;-73
2024/01/14 08:15:17;;;;;;;31.33;10.00;;;-1.30;99.90;;;;;;4431565;28;657293;-72
2024/01/14 08:18:06;;;;;;;28.77;12.47;;;-1.30;99.90;;;;;;4448011;28;658163;-73
2024/01/14 08:20:53;;;;;;;28.10;11.77;;;-1.30;99.90;;;;;;4430039;28;659098;-73
2024/01/14 08:23:41;;;;;;;29.30;14.10;;;-1.30;99.90;;;;;;4448950;28;659393;-72
2024/01/14 08:26:28;;;;;;;19.63;6.77;;;-1.30;99.90;;;;;;4425839;28;658965;-72
2024/01/14 08:29:15;;;;;;;20.03;8.90;;;-1.30;99.90;;;;;;4449504;28;658689;-72
2024/01/14 08:32:03;;;;;;;20.63;8.50;;;-1.30;99.90;;;;;;4441141;28;658320;-72
2024/01/14 08:34:52;;;;;;;24.90;9.90;;;-1.30;99.90;;;;;;4447344;28;658016;-73
2024/01/14 08:37:39;;;;;;;27.13;12.93;;;-1.30;99.90;;;;;;4413092;28;657609;-73
2024/01/14 08:40:26;;;;;;;19.90;8.13;;;-1.20;99.90;;;;;;4434454;28;658569;-73
2024/01/14 08:43:13;;;;;;;14.37;6.63;;;-1.30;99.90;;;;;;4427222;28;658290;-73
2024/01/14 08:46:02;;;;;;;30.33;11.27;;;-1.30;99.90;;;;;;4449122;28;658313;-73
2024/01/14 08:48:49;;;;;;;24.80;10.53;;;-1.30;99.90;;;;;;4419154;28;658624;-73
2024/01/14 08:51:39;;;;;;;20.93;12.27;;;-1.30;99.90;;;;;;4439523;28;658884;-73
2024/01/14 08:54:26;;;;;;;28.27;13.13;;;-1.30;99.90;;;;;;4409840;28;658400;-72
2024/01/14 08:57:13;;;;;;;32.20;12.83;;;-1.30;99.90;;;;;;4421822;28;658729;-72
2024/01/14 09:00:00;;;;;;;21.85;10.77;;;-1.30;99.90;;;;;;4448018;28;659519;-72
2024/01/14 09:02:48;;;;;;;28.37;11.20;;;-1.30;99.90;;;;;;4427512;28;659089;-73
2024/01/14 09:05:35;;;;;;;25.77;11.07;;;-1.30;99.90;;;;;;4447833;28;659598;-73
2024/01/14 09:08:24;;;;;;;36.90;17.53;;;-1.20;99.90;;;;;;4441821;28;658619;-72
2024/01/14 09:11:11;;;;;;;30.57;13.27;;;-1.20;99.90;;;;;;4447465;28;659093;-73
2024/01/14 09:13:58;;;;;;;19.00;8.67;;;-1.20;99.90;;;;;;4427013;28;658270;-73
2024/01/14 09:16:45;;;;;;;27.40;13.27;;;-1.10;99.90;;;;;;4448354;28;657927;-72
2024/01/14 09:19:32;;;;;;;25.43;12.77;;;-1.10;99.90;;;;;;4428433;28;658713;-73
2024/01/14 09:22:20;;;;;;;19.77;10.10;;;-1.10;99.90;;;;;;4447770;28;660040;-72
2024/01/14 09:25:08;;;;;;;24.80;11.80;;;-1.10;99.90;;;;;;4447071;28;658561;-72
2024/01/14 09:27:56;;;;;;;22.20;9.63;;;-1.00;99.90;;;;;;4424274;28;659913;-73
2024/01/14 09:30:43;;;;;;;19.17;7.13;;;-0.90;99.90;;;;;;4428787;28;658443;-73
2024/01/14 09:33:30;;;;;;;26.83;12.77;;;-0.90;99.90;;;;;;4451372;28;658813;-73
2024/01/14 09:36:20;;;;;;;17.43;9.53;;;-1.00;99.90;;;;;;4426966;28;658842;-73
2024/01/14 09:39:10;;;;;;;21.20;9.03;;;-1.00;99.90;;;;;;4436455;28;657370;-73
2024/01/14 09:42:05;;;;;;;29.30;12.20;;;-0.90;99.90;;;;;;4413124;28;657860;-73
2024/01/14 09:44:52;;;;;;;25.43;13.07;;;-0.90;99.90;;;;;;4401579;28;658428;-72
2024/01/14 09:47:40;;;;;;;23.30;12.70;;;-0.90;99.90;;;;;;4420979;28;659204;-73
2024/01/14 09:50:27;;;;;;;23.77;11.20;;;-0.90;99.90;;;;;;4446062;28;658740;-73
2024/01/14 09:53:15;;;;;;;19.20;9.40;;;-0.90;99.90;;;;;;4451274;28;658845;-73
2024/01/14 09:56:02;;;;;;;24.07;12.17;;;-0.90;99.90;;;;;;4437180;28;656732;-73
2024/01/14 09:58:50;;;;;;;14.73;7.03;;;-0.90;99.90;;;;;;4425394;28;659265;-72
2024/01/14 10:01:38;;;;;;;25.20;10.05;;;-0.90;99.90;;;;;;4424185;28;657858;-73
2024/01/14 10:04:25;;;;;;;30.47;12.60;;;-1.00;99.90;;;;;;4447646;28;658723;-72
2024/01/14 10:07:12;;;;;;;17.80;7.83;;;-0.90;99.90;;;;;;4443317;28;658925;-73
2024/01/14 10:10:00;;;;;;;19.87;9.07;;;-0.80;99.90;;;;;;4432788;28;657993;-72
2024/01/14 10:12:47;;;;;;;26.60;12.77;;;-0.70;99.90;;;;;;4434779;28;657972;-72
2024/01/14 10:15:35;;;;;;;27.10;14.20;;;-0.60;99.90;;;;;;4408277;28;658845;-72
2024/01/14 10:18:22;;;;;;;25.70;9.73;;;-0.70;99.90;;;;;;4427234;28;658956;-72
2024/01/14 10:21:10;;;;;;;24.27;12.70;;;-0.70;99.90;;;;;;4448349;28;658555;-73
2024/01/14 10:23:57;;;;;;;22.40;11.83;;;-0.70;99.90;;;;;;4438768;28;658554;-73
2024/01/14 10:26:45;;;;;;;23.57;12.33;;;-0.60;99.90;;;;;;4446388;28;660253;-73
2024/01/14 10:29:32;;;;;;;21.33;9.43;;;-0.60;99.90;;;;;;4450874;28;658345;-73
2024/01/14 10:32:20;;;;;;;15.80;6.90;;;-0.60;99.90;;;;;;4428585;28;657887;-72
2024/01/14 10:35:11;;;;;;;16.93;7.67;;;-0.50;99.90;;;;;;4411786;28;657686;-72
2024/01/14 10:37:58;;;;;;;21.40;9.40;;;-0.40;99.90;;;;;;4426768;28;658315;-72
2024/01/14 10:40:45;;;;;;;14.37;6.37;;;-0.30;99.90;;;;;;4451238;28;658697;-72
2024/01/14 10:43:34;;;;;;;9.27;3.37;;;-0.20;99.90;;;;;;4434609;28;658152;-72
2024/01/14 10:46:23;;;;;;;8.20;4.43;;;-0.20;99.90;;;;;;4434251;28;657312;-73
2024/01/14 10:49:12;;;;;;;13.43;4.45;;;-0.20;99.90;;;;;;4408360;28;657521;-72
2024/01/14 10:52:02;;;;;;;24.23;12.63;;;-0.20;99.90;;;;;;4420032;28;657990;-73
2024/01/14 10:54:53;;;;;;;19.90;8.73;;;-0.30;99.90;;;;;;4414549;28;659238;-72
2024/01/14 10:57:40;;;;;;;19.95;8.05;;;-0.30;99.90;;;;;;4419692;28;657948;-72
2024/01/14 11:00:28;;;;;;;16.20;6.40;;;-0.30;99.90;;;;;;4415139;28;657606;-73
2024/01/14 11:03:15;;;;;;;21.17;9.50;;;-0.30;99.90;;;;;;4450942;28;658229;-73
2024/01/14 11:06:04;;;;;;;18.60;8.57;;;-0.40;99.90;;;;;;4432437;28;657539;-73
2024/01/14 11:08:52;;;;;;;21.47;9.07;;;-0.40;99.90;;;;;;4437269;28;657909;-73
2024/01/14 11:11:41;;;;;;;15.67;7.93;;;-0.30;99.90;;;;;;4415076;28;657701;-72
2024/01/14 11:14:30;;;;;;;24.73;10.50;;;-0.20;99.90;;;;;;4410714;28;658401;-73
2024/01/14 11:17:29;;;;;;;16.27;7.55;;;-0.20;99.90;;;;;;4409192;28;659382;-73
2024/01/14 11:20:17;;;;;;;17.13;8.53;;;-0.10;99.90;;;;;;4406446;28;657803;-73
2024/01/14 11:23:06;;;;;;;16.90;9.63;;;-0.10;99.90;;;;;;4416844;28;657560;-72
2024/01/14 11:25:53;;;;;;;22.77;11.27;;;-0.10;99.90;;;;;;4424262;28;657869;-72
2024/01/14 11:28:44;;;;;;;12.98;5.82;;;-0.10;99.90;;;;;;4450163;28;659198;-71
2024/01/14 11:32:05;;;;;;;18.67;9.13;;;0.00;99.90;;;;;;4423539;28;657800;-71
2024/01/14 11:34:54;;;;;;;12.57;6.33;;;0.00;99.90;;;;;;4419647;28;656904;-72
2024/01/14 11:37:44;;;;;;;17.87;8.03;;;0.00;99.90;;;;;;4447599;28;656245;-71
2024/01/14 11:40:33;;;;;;;22.20;9.27;;;0.10;99.90;;;;;;4424977;28;656612;-71
2024/01/14 11:43:20;;;;;;;17.40;6.57;;;0.10;99.90;;;;;;4424159;28;656590;-71
2024/01/14 11:46:07;;;;;;;20.98;8.38;;;0.00;99.90;;;;;;4429109;28;656852;-71
2024/01/14 11:48:55;;;;;;;21.23;12.10;;;-0.10;99.90;;;;;;4441645;28;657416;-71
2024/01/14 11:51:51;;;;;;;17.03;8.33;;;-0.20;99.90;;;;;;4445484;28;658919;-71
2024/01/14 11:54:38;;;;;;;21.30;8.10;;;-0.20;99.90;;;;;;4401906;28;658408;-72
2024/01/14 11:57:27;;;;;;;5.83;2.80;;;-0.30;99.90;;;;;;4440035;28;657944;-71
2024/01/14 12:00:14;;;;;;;13.67;5.87;;;-0.30;99.90;;;;;;4415534;28;657319;-72
2024/01/14 12:03:06;;;;;;;21.40;10.90;;;-0.30;99.90;;;;;;4450539;28;658369;-71
2024/01/14 12:05:54;;;;;;;21.97;9.63;;;-0.30;99.90;;;;;;4429272;28;659260;-71
2024/01/14 12:08:41;;;;;;;23.60;10.53;;;-0.40;99.90;;;;;;4450164;28;657229;-72
2024/01/14 12:11:28;;;;;;;22.83;11.30;;;-0.40;99.90;;;;;;4430315;28;658843;-71
2024/01/14 12:14:17;;;;;;;22.47;8.23;;;-0.40;99.90;;;;;;4431466;28;659832;-71
2024/01/14 12:17:10;;;;;;;28.33;12.47;;;-0.40;99.90;;;;;;4423881;28;658581;-72
2024/01/14 12:19:57;;;;;;;26.30;14.20;;;-0.30;99.90;;;;;;4425753;28;658580;-71
2024/01/14 12:22:44;;;;;;;11.13;4.67;;;-0.40;99.90;;;;;;4426123;28;659516;-71
2024/01/14 12:25:31;;;;;;;7.70;4.70;;;-0.30;99.90;;;;;;4453217;28;656775;-71
2024/01/14 12:28:19;;;;;;;19.50;7.07;;;-0.30;99.90;;;;;;4428667;28;656688;-71
2024/01/14 12:31:07;;;;;;;13.10;6.83;;;-0.40;99.90;;;;;;4449524;28;657722;-72
2024/01/14 12:33:54;;;;;;;17.40;6.15;;;-0.40;99.90;;;;;;4430499;28;658551;-71
2024/01/14 12:36:42;;;;;;;20.43;8.07;;;-0.30;99.90;;;;;;4449095;28;657636;-71
2024/01/14 12:39:29;;;;;;;24.83;12.30;;;-0.30;99.90;;;;;;4430961;28;658223;-72
2024/01/14 12:42:16;;;;;;;20.23;8.63;;;-0.30;99.90;;;;;;4447928;28;658813;-71
2024/01/14 12:45:04;;;;;;;12.40;5.17;;;-0.30;99.90;;;;;;4430982;28;658104;-71
2024/01/14 12:48:02;;;;;;;20.03;8.90;;;-0.30;99.90;;;;;;4449415;28;657517;-71
2024/01/14 12:50:50;;;;;;;23.90;10.80;;;-0.40;99.90;;;;;;4425053;28;657380;-72
2024/01/14 12:53:37;;;;;;;19.20;8.57;;;-0.40;99.90;;;;;;4448047;28;658531;-72
2024/01/14 12:56:24;;;;;;;25.83;12.27;;;-0.40;99.90;;;;;;4416428;28;658475;-72
2024/01/14 12:59:11;;;;;;;18.83;8.50;;;-0.40;99.90;;;;;;4448292;28;658689;-72
2024/01/14 13:01:59;;;;;;;26.33;12.23;;;-0.30;99.90;;;;;;4427707;28;657519;-71
2024/01/14 13:04:48;;;;;;;11.93;5.23;;;-0.30;99.90;;;;;;4447486;28;659350;-71
2024/01/14 13:07:35;;;;;;;20.93;9.10;;;-0.30;99.90;;;;;;4424130;28;658173;-72
2024/01/14 13:10:22;;;;;;;17.77;8.50;;;-0.30;99.90;;;;;;4429551;28;657375;-72
2024/01/14 13:13:09;;;;;;;22.83;11.20;;;-0.30;99.90;;;;;;4453174;28;657742;-72
2024/01/14 13:15:57;;;;;;;26.57;12.17;;;-0.30;99.90;;;;;;4447629;28;658967;-72
2024/01/14 13:18:44;;;;;;;20.53;10.80;;;-0.30;99.90;;;;;;4429066;28;658670;-72
2024/01/14 13:21:33;;;;;;;24.27;12.97;;;-0.30;99.90;;;;;;4451511;28;658325;-72
2024/01/14 13:24:20;;;;;;;20.23;8.73;;;-0.30;99.90;;;;;;4426545;28;659224;-72
2024/01/14 13:27:08;;;;;;;23.60;12.53;;;-0.30;99.90;;;;;;4443122;28;657134;-72
2024/01/14 13:29:55;;;;;;;23.87;11.00;;;-0.30;99.90;;;;;;4451559;28;659909;-72
2024/01/14 13:32:42;;;;;;;26.20;11.43;;;-0.30;99.90;;;;;;4432143;28;658417;-72
2024/01/14 13:35:30;;;;;;;27.13;13.17;;;-0.20;99.90;;;;;;4447443;28;659764;-72
2024/01/14 13:38:18;;;;;;;19.10;9.83;;;-0.30;99.90;;;;;;4447922;28;658468;-72
2024/01/14 13:41:05;;;;;;;21.77;10.77;;;-0.30;99.90;;;;;;4428485;28;658479;-72
2024/01/14 13:43:53;;;;;;;25.60;10.47;;;-0.30;99.90;;;;;;4428929;28;659357;-72
2024/01/14 13:46:40;;;;;;;29.67;12.20;;;-0.30;99.90;;;;;;4447542;28;659699;-72
2024/01/14 13:49:28;;;;;;;25.03;10.03;;;-0.20;99.90;;;;;;4440190;28;658554;-72
2024/01/14 13:52:16;;;;;;;20.57;9.47;;;-0.20;99.90;;;;;;4447607;28;659597;-72
2024/01/14 13:55:05;;;;;;;13.00;5.90;;;-0.20;99.90;;;;;;4420364;28;658072;-72
2024/01/14 13:57:53;;;;;;;18.15;8.30;;;-0.10;99.90;;;;;;4426096;28;657946;-72
2024/01/14 14:00:40;;;;;;;24.10;12.70;;;-0.10;99.90;;;;;;4448172;28;658680;-72
2024/01/14 14:03:28;;;;;;;20.97;9.80;;;-0.10;99.90;;;;;;4437662;28;658997;-72
2024/01/14 14:06:15;;;;;;;22.17;11.27;;;-0.20;99.90;;;;;;4448215;28;658017;-72